sensor_id;sensor_type;location;lat;lon;timestamp;temperature;humidity
40123;DHT22;25832;45.490;4.912;2022-09-20T00:01:13;11.20;93.60
40123;DHT22;25832;45.490;4.912;2022-09-20T00:03:42;11.20;93.70
40123;DHT22;25832;45.490;4.912;2022-09-20T00:06:10;11.20;93.70
40123;DHT22;25832;45.490;4.912;2022-09-20T00:08:36;11.20;93.70
40123;DHT22;25832;45.490;4.912;2022-09-20T00:11:03;11.20;93.70
40123;DHT22;25832;45.490;4.912;2022-09-20T00:13:32;11.20;93.70
40123;DHT22;25832;45.490;4.912;2022-09-20T00:15:58;11.20;93.70
40123;DHT22;25832;45.490;4.912;2022-09-20T00:18:25;11.20;93.80
40123;DHT22;25832;45.490;4.912;2022-09-20T00:20:51;11.10;94.00
40123;DHT22;25832;45.490;4.912;2022-09-20T00:23:18;11.10;94.00
40123;DHT22;25832;45.490;4.912;2022-09-20T00:25:44;11.10;94.00
40123;DHT22;25832;45.490;4.912;2022-09-20T00:28:11;11.10;94.00
40123;DHT22;25832;45.490;4.912;2022-09-20T00:30:37;11.10;94.00
40123;DHT22;25832;45.490;4.912;2022-09-20T00:33:03;11.10;94.00
40123;DHT22;25832;45.490;4.912;2022-09-20T00:35:29;11.10;94.10
40123;DHT22;25832;45.490;4.912;2022-09-20T00:37:55;11.10;94.10
40123;DHT22;25832;45.490;4.912;2022-09-20T00:40:23;11.10;94.10
40123;DHT22;25832;45.490;4.912;2022-09-20T00:42:49;11.00;94.10
40123;DHT22;25832;45.490;4.912;2022-09-20T00:53:25;10.90;94.20
40123;DHT22;25832;45.490;4.912;2022-09-20T00:56:05;11.00;94.20
40123;DHT22;25832;45.490;4.912;2022-09-20T00:58:35;10.90;94.40
40123;DHT22;25832;45.490;4.912;2022-09-20T01:01:03;10.80;94.80
40123;DHT22;25832;45.490;4.912;2022-09-20T01:03:31;10.70;94.80
40123;DHT22;25832;45.490;4.912;2022-09-20T01:06:01;10.60;95.20
40123;DHT22;25832;45.490;4.912;2022-09-20T01:08:28;10.40;95.50
40123;DHT22;25832;45.490;4.912;2022-09-20T01:10:55;10.30;96.10
40123;DHT22;25832;45.490;4.912;2022-09-20T01:13:20;10.10;96.50
40123;DHT22;25832;45.490;4.912;2022-09-20T01:15:47;9.90;97.10
40123;DHT22;25832;45.490;4.912;2022-09-20T01:18:15;9.80;97.70
40123;DHT22;25832;45.490;4.912;2022-09-20T01:20:43;9.60;97.70
40123;DHT22;25832;45.490;4.912;2022-09-20T01:28:39;9.30;98.40
40123;DHT22;25832;45.490;4.912;2022-09-20T01:31:30;9.30;98.50
40123;DHT22;25832;45.490;4.912;2022-09-20T01:34:11;9.30;98.70
40123;DHT22;25832;45.490;4.912;2022-09-20T01:36:49;9.30;98.80
40123;DHT22;25832;45.490;4.912;2022-09-20T01:42:45;9.20;99.20
40123;DHT22;25832;45.490;4.912;2022-09-20T01:45:29;9.20;99.30
40123;DHT22;25832;45.490;4.912;2022-09-20T02:20:28;8.60;99.90
40123;DHT22;25832;45.490;4.912;2022-09-20T02:23:26;8.50;99.90
40123;DHT22;25832;45.490;4.912;2022-09-20T02:26:27;8.40;99.90
40123;DHT22;25832;45.490;4.912;2022-09-20T02:31:43;8.20;99.90
40123;DHT22;25832;45.490;4.912;2022-09-20T02:45:26;7.70;99.90
40123;DHT22;25832;45.490;4.912;2022-09-20T02:48:02;7.50;99.90
40123;DHT22;25832;45.490;4.912;2022-09-20T02:50:41;7.30;99.90
40123;DHT22;25832;45.490;4.912;2022-09-20T03:02:06;7.10;99.90
40123;DHT22;25832;45.490;4.912;2022-09-20T03:08:03;7.10;99.90
40123;DHT22;25832;45.490;4.912;2022-09-20T03:10:40;7.00;99.90
40123;DHT22;25832;45.490;4.912;2022-09-20T03:13:21;6.90;99.90
40123;DHT22;25832;45.490;4.912;2022-09-20T03:16:03;6.90;99.90
40123;DHT22;25832;45.490;4.912;2022-09-20T03:18:35;6.80;99.90
40123;DHT22;25832;45.490;4.912;2022-09-20T03:23:53;6.80;99.90
40123;DHT22;25832;45.490;4.912;2022-09-20T03:31:51;6.60;99.90
40123;DHT22;25832;45.490;4.912;2022-09-20T03:37:24;6.60;99.90
40123;DHT22;25832;45.490;4.912;2022-09-20T03:42:52;6.50;99.90
40123;DHT22;25832;45.490;4.912;2022-09-20T03:46:20;6.40;99.90
40123;DHT22;25832;45.490;4.912;2022-09-20T03:51:07;6.30;99.90
40123;DHT22;25832;45.490;4.912;2022-09-20T03:59:29;6.40;99.90
40123;DHT22;25832;45.490;4.912;2022-09-20T04:07:46;6.40;99.90
40123;DHT22;25832;45.490;4.912;2022-09-20T04:10:18;6.40;99.90
40123;DHT22;25832;45.490;4.912;2022-09-20T04:13:16;6.40;99.90
40123;DHT22;25832;45.490;4.912;2022-09-20T04:16:22;6.40;99.90
40123;DHT22;25832;45.490;4.912;2022-09-20T04:21:42;6.30;99.90
40123;DHT22;25832;45.490;4.912;2022-09-20T04:24:19;6.40;99.90
40123;DHT22;25832;45.490;4.912;2022-09-20T04:26:58;6.30;99.90
40123;DHT22;25832;45.490;4.912;2022-09-20T04:29:43;6.30;99.90
40123;DHT22;25832;45.490;4.912;2022-09-20T04:37:55;6.10;99.90
40123;DHT22;25832;45.490;4.912;2022-09-20T04:57:09;5.80;99.90
40123;DHT22;25832;45.490;4.912;2022-09-20T05:05:43;5.80;99.90
40123;DHT22;25832;45.490;4.912;2022-09-20T05:08:53;5.80;99.90
40123;DHT22;25832;45.490;4.912;2022-09-20T05:30:51;5.80;99.90
40123;DHT22;25832;45.490;4.912;2022-09-20T05:33:51;5.80;99.90
40123;DHT22;25832;45.490;4.912;2022-09-20T05:39:20;5.80;99.90
40123;DHT22;25832;45.490;4.912;2022-09-20T05:42:03;5.80;99.90
40123;DHT22;25832;45.490;4.912;2022-09-20T05:44:55;5.90;99.90
40123;DHT22;25832;45.490;4.912;2022-09-20T05:47:42;6.10;99.90
40123;DHT22;25832;45.490;4.912;2022-09-20T05:58:50;6.70;99.90
40123;DHT22;25832;45.490;4.912;2022-09-20T06:01:41;7.20;99.90
40123;DHT22;25832;45.490;4.912;2022-09-20T06:04:28;7.80;99.90
40123;DHT22;25832;45.490;4.912;2022-09-20T06:07:10;8.40;99.90
40123;DHT22;25832;45.490;4.912;2022-09-20T06:12:46;9.40;99.90
40123;DHT22;25832;45.490;4.912;2022-09-20T06:15:28;9.90;99.90
40123;DHT22;25832;45.490;4.912;2022-09-20T06:18:21;10.30;99.90
40123;DHT22;25832;45.490;4.912;2022-09-20T06:21:08;10.70;99.90
40123;DHT22;25832;45.490;4.912;2022-09-20T06:23:38;11.00;99.90
40123;DHT22;25832;45.490;4.912;2022-09-20T06:26:09;11.10;99.90
40123;DHT22;25832;45.490;4.912;2022-09-20T06:28:41;11.20;99.90
40123;DHT22;25832;45.490;4.912;2022-09-20T06:31:09;11.20;99.90
40123;DHT22;25832;45.490;4.912;2022-09-20T06:33:50;11.30;99.90
40123;DHT22;25832;45.490;4.912;2022-09-20T06:36:30;11.20;99.90
40123;DHT22;25832;45.490;4.912;2022-09-20T06:42:07;11.30;99.90
40123;DHT22;25832;45.490;4.912;2022-09-20T06:44:35;11.40;99.90
40123;DHT22;25832;45.490;4.912;2022-09-20T06:47:04;11.50;99.90
40123;DHT22;25832;45.490;4.912;2022-09-20T06:49:32;11.60;99.90
40123;DHT22;25832;45.490;4.912;2022-09-20T06:52:01;11.70;99.90
40123;DHT22;25832;45.490;4.912;2022-09-20T06:54:28;11.70;99.90
40123;DHT22;25832;45.490;4.912;2022-09-20T06:56:54;11.80;99.90
40123;DHT22;25832;45.490;4.912;2022-09-20T06:59:20;11.80;99.90
40123;DHT22;25832;45.490;4.912;2022-09-20T07:01:46;11.90;99.90
40123;DHT22;25832;45.490;4.912;2022-09-20T07:04:12;12.00;99.60
40123;DHT22;25832;45.490;4.912;2022-09-20T07:06:38;12.00;99.60
40123;DHT22;25832;45.490;4.912;2022-09-20T07:09:05;12.10;99.90
40123;DHT22;25832;45.490;4.912;2022-09-20T07:11:32;12.30;99.90
40123;DHT22;25832;45.490;4.912;2022-09-20T07:13:58;12.40;98.90
40123;DHT22;25832;45.490;4.912;2022-09-20T07:16:24;12.40;99.20
40123;DHT22;25832;45.490;4.912;2022-09-20T07:18:51;12.40;98.70
40123;DHT22;25832;45.490;4.912;2022-09-20T07:21:18;12.30;99.40
40123;DHT22;25832;45.490;4.912;2022-09-20T07:23:44;12.20;99.80
40123;DHT22;25832;45.490;4.912;2022-09-20T07:26:23;12.20;99.70
40123;DHT22;25832;45.490;4.912;2022-09-20T07:28:50;12.10;99.30
40123;DHT22;25832;45.490;4.912;2022-09-20T07:31:18;11.90;99.80
40123;DHT22;25832;45.490;4.912;2022-09-20T07:33:44;11.80;99.90
40123;DHT22;25832;45.490;4.912;2022-09-20T07:36:10;11.70;99.90
40123;DHT22;25832;45.490;4.912;2022-09-20T07:38:39;11.60;99.90
40123;DHT22;25832;45.490;4.912;2022-09-20T07:41:07;11.60;99.90
40123;DHT22;25832;45.490;4.912;2022-09-20T07:43:33;11.60;99.90
40123;DHT22;25832;45.490;4.912;2022-09-20T07:45:59;11.80;99.90
40123;DHT22;25832;45.490;4.912;2022-09-20T07:48:34;11.70;99.90
40123;DHT22;25832;45.490;4.912;2022-09-20T07:51:04;11.80;99.90
40123;DHT22;25832;45.490;4.912;2022-09-20T07:53:30;12.00;99.90
40123;DHT22;25832;45.490;4.912;2022-09-20T07:58:30;12.40;99.90
40123;DHT22;25832;45.490;4.912;2022-09-20T08:01:02;12.60;99.90
40123;DHT22;25832;45.490;4.912;2022-09-20T08:03:31;12.60;99.50
40123;DHT22;25832;45.490;4.912;2022-09-20T08:06:00;12.70;99.90
40123;DHT22;25832;45.490;4.912;2022-09-20T08:08:26;13.00;99.90
40123;DHT22;25832;45.490;4.912;2022-09-20T08:11:01;13.10;99.10
40123;DHT22;25832;45.490;4.912;2022-09-20T08:13:27;13.30;98.20
40123;DHT22;25832;45.490;4.912;2022-09-20T08:16:03;13.40;99.60
40123;DHT22;25832;45.490;4.912;2022-09-20T08:18:30;13.50;99.30
40123;DHT22;25832;45.490;4.912;2022-09-20T08:20:55;13.60;97.50
40123;DHT22;25832;45.490;4.912;2022-09-20T08:23:21;13.60;97.00
40123;DHT22;25832;45.490;4.912;2022-09-20T08:25:47;13.60;98.10
40123;DHT22;25832;45.490;4.912;2022-09-20T08:28:14;13.70;97.10
40123;DHT22;25832;45.490;4.912;2022-09-20T08:30:39;13.70;97.30
40123;DHT22;25832;45.490;4.912;2022-09-20T08:33:05;13.70;96.40
40123;DHT22;25832;45.490;4.912;2022-09-20T08:35:34;13.70;96.70
40123;DHT22;25832;45.490;4.912;2022-09-20T08:38:00;13.70;97.20
40123;DHT22;25832;45.490;4.912;2022-09-20T08:40:28;13.80;97.00
40123;DHT22;25832;45.490;4.912;2022-09-20T08:42:55;13.80;97.20
40123;DHT22;25832;45.490;4.912;2022-09-20T08:45:22;13.90;96.50
40123;DHT22;25832;45.490;4.912;2022-09-20T08:48:12;14.00;95.90
40123;DHT22;25832;45.490;4.912;2022-09-20T08:50:39;14.00;96.00
40123;DHT22;25832;45.490;4.912;2022-09-20T08:53:11;14.10;96.40
40123;DHT22;25832;45.490;4.912;2022-09-20T08:55:39;14.20;95.60
40123;DHT22;25832;45.490;4.912;2022-09-20T08:58:09;14.30;95.40
40123;DHT22;25832;45.490;4.912;2022-09-20T09:00:36;14.40;95.20
40123;DHT22;25832;45.490;4.912;2022-09-20T09:03:10;14.40;96.00
40123;DHT22;25832;45.490;4.912;2022-09-20T09:05:37;14.50;95.00
40123;DHT22;25832;45.490;4.912;2022-09-20T09:08:17;14.60;95.40
40123;DHT22;25832;45.490;4.912;2022-09-20T09:10:57;14.70;94.90
40123;DHT22;25832;45.490;4.912;2022-09-20T09:13:47;14.70;94.80
40123;DHT22;25832;45.490;4.912;2022-09-20T09:16:17;14.80;94.90
40123;DHT22;25832;45.490;4.912;2022-09-20T09:18:45;14.80;94.50
40123;DHT22;25832;45.490;4.912;2022-09-20T09:24:06;14.90;93.70
40123;DHT22;25832;45.490;4.912;2022-09-20T09:26:40;15.00;94.10
40123;DHT22;25832;45.490;4.912;2022-09-20T09:29:18;15.00;93.90
40123;DHT22;25832;45.490;4.912;2022-09-20T09:31:45;15.10;93.50
40123;DHT22;25832;45.490;4.912;2022-09-20T09:34:31;15.20;93.70
40123;DHT22;25832;45.490;4.912;2022-09-20T09:37:03;15.30;93.90
40123;DHT22;25832;45.490;4.912;2022-09-20T09:39:35;15.50;93.60
40123;DHT22;25832;45.490;4.912;2022-09-20T09:42:23;15.50;92.10
40123;DHT22;25832;45.490;4.912;2022-09-20T09:44:50;15.50;92.80
40123;DHT22;25832;45.490;4.912;2022-09-20T09:47:26;15.50;92.70
40123;DHT22;25832;45.490;4.912;2022-09-20T09:49:57;15.60;92.30
40123;DHT22;25832;45.490;4.912;2022-09-20T09:52:24;15.60;92.40
40123;DHT22;25832;45.490;4.912;2022-09-20T09:54:57;15.70;93.70
40123;DHT22;25832;45.490;4.912;2022-09-20T10:00:09;15.90;91.80
40123;DHT22;25832;45.490;4.912;2022-09-20T10:03:04;15.90;91.50
40123;DHT22;25832;45.490;4.912;2022-09-20T10:06:05;16.00;91.50
40123;DHT22;25832;45.490;4.912;2022-09-20T10:08:55;16.10;93.10
40123;DHT22;25832;45.490;4.912;2022-09-20T10:14:18;16.40;92.40
40123;DHT22;25832;45.490;4.912;2022-09-20T10:30:32;17.10;91.70
40123;DHT22;25832;45.490;4.912;2022-09-20T10:33:22;17.20;91.00
40123;DHT22;25832;45.490;4.912;2022-09-20T10:38:38;17.30;88.20
40123;DHT22;25832;45.490;4.912;2022-09-20T10:44:30;17.20;89.50
40123;DHT22;25832;45.490;4.912;2022-09-20T10:55:05;17.60;90.30
40123;DHT22;25832;45.490;4.912;2022-09-20T11:00:42;17.70;89.80
40123;DHT22;25832;45.490;4.912;2022-09-20T11:03:48;17.80;88.90
40123;DHT22;25832;45.490;4.912;2022-09-20T11:08:58;17.80;90.50
40123;DHT22;25832;45.490;4.912;2022-09-20T11:11:30;18.00;89.40
40123;DHT22;25832;45.490;4.912;2022-09-20T11:14:08;18.00;86.30
40123;DHT22;25832;45.490;4.912;2022-09-20T11:22:12;18.10;86.90
40123;DHT22;25832;45.490;4.912;2022-09-20T11:32:31;18.20;83.90
40123;DHT22;25832;45.490;4.912;2022-09-20T11:35:26;18.30;84.10
40123;DHT22;25832;45.490;4.912;2022-09-20T11:43:31;18.60;84.30
40123;DHT22;25832;45.490;4.912;2022-09-20T11:46:01;18.70;82.50
40123;DHT22;25832;45.490;4.912;2022-09-20T11:56:27;18.90;82.90
40123;DHT22;25832;45.490;4.912;2022-09-20T11:58:57;18.90;83.50
40123;DHT22;25832;45.490;4.912;2022-09-20T12:01:33;19.00;83.50
40123;DHT22;25832;45.490;4.912;2022-09-20T12:04:19;19.10;83.00
40123;DHT22;25832;45.490;4.912;2022-09-20T12:07:22;19.10;82.50
40123;DHT22;25832;45.490;4.912;2022-09-20T12:10:00;19.20;82.20
40123;DHT22;25832;45.490;4.912;2022-09-20T12:12:41;19.20;84.20
40123;DHT22;25832;45.490;4.912;2022-09-20T12:28:56;19.40;78.20
40123;DHT22;25832;45.490;4.912;2022-09-20T12:39:38;19.40;76.40
40123;DHT22;25832;45.490;4.912;2022-09-20T12:52:31;19.50;76.80
40123;DHT22;25832;45.490;4.912;2022-09-20T13:05:45;19.70;75.30
40123;DHT22;25832;45.490;4.912;2022-09-20T13:08:18;19.70;75.80
40123;DHT22;25832;45.490;4.912;2022-09-20T13:11:39;19.70;75.60
40123;DHT22;25832;45.490;4.912;2022-09-20T13:13:47;19.70;74.10
40123;DHT22;25832;45.490;4.912;2022-09-20T13:16:23;19.70;75.40
40123;DHT22;25832;45.490;4.912;2022-09-20T13:19:05;19.70;76.50
40123;DHT22;25832;45.490;4.912;2022-09-20T13:21:35;19.70;75.70
40123;DHT22;25832;45.490;4.912;2022-09-20T13:24:02;19.70;76.40
40123;DHT22;25832;45.490;4.912;2022-09-20T13:26:40;19.70;75.20
40123;DHT22;25832;45.490;4.912;2022-09-20T13:29:16;19.80;76.40
40123;DHT22;25832;45.490;4.912;2022-09-20T13:31:43;19.80;78.90
40123;DHT22;25832;45.490;4.912;2022-09-20T13:34:20;19.80;75.50
40123;DHT22;25832;45.490;4.912;2022-09-20T13:36:47;19.80;75.90
40123;DHT22;25832;45.490;4.912;2022-09-20T13:39:35;19.80;75.20
40123;DHT22;25832;45.490;4.912;2022-09-20T13:42:07;19.80;74.50
40123;DHT22;25832;45.490;4.912;2022-09-20T13:44:35;19.80;74.70
40123;DHT22;25832;45.490;4.912;2022-09-20T13:47:19;19.80;74.70
40123;DHT22;25832;45.490;4.912;2022-09-20T13:49:45;19.80;73.60
40123;DHT22;25832;45.490;4.912;2022-09-20T13:52:26;19.70;74.20
40123;DHT22;25832;45.490;4.912;2022-09-20T13:54:52;19.70;76.40
40123;DHT22;25832;45.490;4.912;2022-09-20T13:57:30;19.70;73.80
40123;DHT22;25832;45.490;4.912;2022-09-20T13:59:56;19.70;76.60
40123;DHT22;25832;45.490;4.912;2022-09-20T14:02:31;19.80;76.10
40123;DHT22;25832;45.490;4.912;2022-09-20T14:05:00;19.80;77.20
40123;DHT22;25832;45.490;4.912;2022-09-20T14:07:26;19.90;76.10
40123;DHT22;25832;45.490;4.912;2022-09-20T14:09:54;19.80;73.60
40123;DHT22;25832;45.490;4.912;2022-09-20T14:12:22;19.80;73.00
40123;DHT22;25832;45.490;4.912;2022-09-20T14:14:49;19.80;74.10
40123;DHT22;25832;45.490;4.912;2022-09-20T14:17:17;19.80;73.30
40123;DHT22;25832;45.490;4.912;2022-09-20T14:19:46;19.80;73.60
40123;DHT22;25832;45.490;4.912;2022-09-20T14:22:22;19.80;74.60
40123;DHT22;25832;45.490;4.912;2022-09-20T14:27:40;19.60;73.50
40123;DHT22;25832;45.490;4.912;2022-09-20T14:30:27;19.60;76.80
40123;DHT22;25832;45.490;4.912;2022-09-20T14:32:55;19.70;74.40
40123;DHT22;25832;45.490;4.912;2022-09-20T14:35:22;19.70;74.20
40123;DHT22;25832;45.490;4.912;2022-09-20T14:40:20;19.70;75.20
40123;DHT22;25832;45.490;4.912;2022-09-20T14:42:59;19.80;74.80
40123;DHT22;25832;45.490;4.912;2022-09-20T14:45:30;19.80;72.70
40123;DHT22;25832;45.490;4.912;2022-09-20T14:48:01;19.70;73.50
40123;DHT22;25832;45.490;4.912;2022-09-20T14:50:45;19.60;73.40
40123;DHT22;25832;45.490;4.912;2022-09-20T14:53:30;19.60;74.30
40123;DHT22;25832;45.490;4.912;2022-09-20T14:58:31;19.70;73.30
40123;DHT22;25832;45.490;4.912;2022-09-20T15:01:03;19.70;73.70
40123;DHT22;25832;45.490;4.912;2022-09-20T15:03:38;19.60;73.50
40123;DHT22;25832;45.490;4.912;2022-09-20T15:06:05;19.60;73.90
40123;DHT22;25832;45.490;4.912;2022-09-20T15:08:34;19.60;73.90
40123;DHT22;25832;45.490;4.912;2022-09-20T15:11:01;19.60;74.40
40123;DHT22;25832;45.490;4.912;2022-09-20T15:13:27;19.60;73.40
40123;DHT22;25832;45.490;4.912;2022-09-20T15:15:53;19.60;72.90
40123;DHT22;25832;45.490;4.912;2022-09-20T15:18:24;19.60;74.60
40123;DHT22;25832;45.490;4.912;2022-09-20T15:20:52;19.60;75.10
40123;DHT22;25832;45.490;4.912;2022-09-20T15:23:18;19.60;73.80
40123;DHT22;25832;45.490;4.912;2022-09-20T15:25:44;19.60;73.00
40123;DHT22;25832;45.490;4.912;2022-09-20T15:28:14;19.60;72.20
40123;DHT22;25832;45.490;4.912;2022-09-20T15:30:45;19.50;72.20
40123;DHT22;25832;45.490;4.912;2022-09-20T15:33:11;19.50;73.60
40123;DHT22;25832;45.490;4.912;2022-09-20T15:35:38;19.50;73.40
40123;DHT22;25832;45.490;4.912;2022-09-20T15:38:05;19.50;74.00
40123;DHT22;25832;45.490;4.912;2022-09-20T15:40:34;19.50;73.60
40123;DHT22;25832;45.490;4.912;2022-09-20T15:42:59;19.40;73.50
40123;DHT22;25832;45.490;4.912;2022-09-20T15:45:25;19.40;74.20
40123;DHT22;25832;45.490;4.912;2022-09-20T15:47:53;19.40;75.80
40123;DHT22;25832;45.490;4.912;2022-09-20T15:50:23;19.40;74.60
40123;DHT22;25832;45.490;4.912;2022-09-20T15:52:50;19.40;74.40
40123;DHT22;25832;45.490;4.912;2022-09-20T15:55:20;19.30;73.80
40123;DHT22;25832;45.490;4.912;2022-09-20T15:57:46;19.30;73.80
40123;DHT22;25832;45.490;4.912;2022-09-20T16:00:14;19.20;73.20
40123;DHT22;25832;45.490;4.912;2022-09-20T16:02:42;19.20;74.40
40123;DHT22;25832;45.490;4.912;2022-09-20T16:05:09;19.20;74.40
40123;DHT22;25832;45.490;4.912;2022-09-20T16:07:35;19.20;74.20
40123;DHT22;25832;45.490;4.912;2022-09-20T16:10:01;19.10;74.00
40123;DHT22;25832;45.490;4.912;2022-09-20T16:12:27;19.10;73.80
40123;DHT22;25832;45.490;4.912;2022-09-20T16:14:53;19.10;74.80
40123;DHT22;25832;45.490;4.912;2022-09-20T16:17:18;19.10;74.40
40123;DHT22;25832;45.490;4.912;2022-09-20T16:20:04;19.10;75.00
40123;DHT22;25832;45.490;4.912;2022-09-20T16:22:30;19.20;74.70
40123;DHT22;25832;45.490;4.912;2022-09-20T16:24:58;19.20;74.80
40123;DHT22;25832;45.490;4.912;2022-09-20T16:27:26;19.10;74.50
40123;DHT22;25832;45.490;4.912;2022-09-20T16:29:51;19.10;74.20
40123;DHT22;25832;45.490;4.912;2022-09-20T16:32:17;19.10;75.10
40123;DHT22;25832;45.490;4.912;2022-09-20T16:34:43;19.10;75.00
40123;DHT22;25832;45.490;4.912;2022-09-20T16:37:10;19.10;73.80
40123;DHT22;25832;45.490;4.912;2022-09-20T16:39:40;19.00;74.50
40123;DHT22;25832;45.490;4.912;2022-09-20T16:42:07;19.00;74.90
40123;DHT22;25832;45.490;4.912;2022-09-20T16:44:35;19.00;75.10
40123;DHT22;25832;45.490;4.912;2022-09-20T16:47:05;18.90;74.50
40123;DHT22;25832;45.490;4.912;2022-09-20T16:49:34;18.80;73.90
40123;DHT22;25832;45.490;4.912;2022-09-20T16:52:02;18.80;74.90
40123;DHT22;25832;45.490;4.912;2022-09-20T16:54:28;18.80;75.60
40123;DHT22;25832;45.490;4.912;2022-09-20T16:56:54;18.80;75.00
40123;DHT22;25832;45.490;4.912;2022-09-20T16:59:20;18.80;74.70
40123;DHT22;25832;45.490;4.912;2022-09-20T17:01:46;18.70;74.40
40123;DHT22;25832;45.490;4.912;2022-09-20T17:04:12;18.70;75.00
40123;DHT22;25832;45.490;4.912;2022-09-20T17:06:39;18.60;74.80
40123;DHT22;25832;45.490;4.912;2022-09-20T17:09:06;18.50;74.30
40123;DHT22;25832;45.490;4.912;2022-09-20T17:11:36;18.40;74.40
40123;DHT22;25832;45.490;4.912;2022-09-20T17:14:03;18.10;75.40
40123;DHT22;25832;45.490;4.912;2022-09-20T17:16:37;17.90;75.40
40123;DHT22;25832;45.490;4.912;2022-09-20T17:19:10;17.70;75.00
40123;DHT22;25832;45.490;4.912;2022-09-20T17:21:39;17.50;76.00
40123;DHT22;25832;45.490;4.912;2022-09-20T17:24:05;17.40;76.60
40123;DHT22;25832;45.490;4.912;2022-09-20T17:26:37;17.30;76.70
40123;DHT22;25832;45.490;4.912;2022-09-20T17:29:06;17.20;77.10
40123;DHT22;25832;45.490;4.912;2022-09-20T17:31:34;17.10;77.30
40123;DHT22;25832;45.490;4.912;2022-09-20T17:34:00;17.00;77.20
40123;DHT22;25832;45.490;4.912;2022-09-20T17:36:29;16.90;76.90
40123;DHT22;25832;45.490;4.912;2022-09-20T17:38:57;16.80;77.60
40123;DHT22;25832;45.490;4.912;2022-09-20T17:41:23;16.70;77.40
40123;DHT22;25832;45.490;4.912;2022-09-20T17:43:57;16.70;77.70
40123;DHT22;25832;45.490;4.912;2022-09-20T17:46:27;16.60;77.80
40123;DHT22;25832;45.490;4.912;2022-09-20T17:49:04;16.50;77.50
40123;DHT22;25832;45.490;4.912;2022-09-20T17:51:32;16.40;77.70
40123;DHT22;25832;45.490;4.912;2022-09-20T17:53:58;16.40;77.90
40123;DHT22;25832;45.490;4.912;2022-09-20T17:56:25;16.30;78.10
40123;DHT22;25832;45.490;4.912;2022-09-20T17:58:57;16.30;78.40
40123;DHT22;25832;45.490;4.912;2022-09-20T18:01:24;16.10;78.10
40123;DHT22;25832;45.490;4.912;2022-09-20T18:03:51;16.10;78.10
40123;DHT22;25832;45.490;4.912;2022-09-20T18:09:12;16.00;78.50
40123;DHT22;25832;45.490;4.912;2022-09-20T18:11:50;16.00;79.00
40123;DHT22;25832;45.490;4.912;2022-09-20T18:14:17;15.90;79.20
40123;DHT22;25832;45.490;4.912;2022-09-20T18:16:43;15.90;79.50
40123;DHT22;25832;45.490;4.912;2022-09-20T18:19:09;15.90;79.40
40123;DHT22;25832;45.490;4.912;2022-09-20T18:21:37;15.80;79.70
40123;DHT22;25832;45.490;4.912;2022-09-20T18:24:08;15.70;79.80
40123;DHT22;25832;45.490;4.912;2022-09-20T18:26:34;15.70;80.10
40123;DHT22;25832;45.490;4.912;2022-09-20T18:29:14;15.60;80.10
40123;DHT22;25832;45.490;4.912;2022-09-20T18:31:48;15.60;80.10
40123;DHT22;25832;45.490;4.912;2022-09-20T18:34:21;15.60;80.00
40123;DHT22;25832;45.490;4.912;2022-09-20T18:36:53;15.60;80.30
40123;DHT22;25832;45.490;4.912;2022-09-20T18:39:27;15.50;80.60
40123;DHT22;25832;45.490;4.912;2022-09-20T18:41:54;15.50;80.40
40123;DHT22;25832;45.490;4.912;2022-09-20T18:44:21;15.40;80.60
40123;DHT22;25832;45.490;4.912;2022-09-20T18:46:47;15.40;80.70
40123;DHT22;25832;45.490;4.912;2022-09-20T18:49:13;15.30;80.80
40123;DHT22;25832;45.490;4.912;2022-09-20T18:51:41;15.30;81.00
40123;DHT22;25832;45.490;4.912;2022-09-20T18:54:08;15.30;81.80
40123;DHT22;25832;45.490;4.912;2022-09-20T18:56:36;15.20;81.40
40123;DHT22;25832;45.490;4.912;2022-09-20T18:59:16;15.20;81.50
40123;DHT22;25832;45.490;4.912;2022-09-20T19:10:07;15.10;82.50
40123;DHT22;25832;45.490;4.912;2022-09-20T19:20:58;14.90;82.90
40123;DHT22;25832;45.490;4.912;2022-09-20T19:28:50;14.90;83.30
40123;DHT22;25832;45.490;4.912;2022-09-20T19:33:51;14.80;83.60
40123;DHT22;25832;45.490;4.912;2022-09-20T19:36:23;14.80;83.60
40123;DHT22;25832;45.490;4.912;2022-09-20T19:52:16;14.70;84.30
40123;DHT22;25832;45.490;4.912;2022-09-20T19:54:43;14.70;84.40
40123;DHT22;25832;45.490;4.912;2022-09-20T19:57:30;14.70;84.60
40123;DHT22;25832;45.490;4.912;2022-09-20T19:59:58;14.60;84.60
40123;DHT22;25832;45.490;4.912;2022-09-20T20:02:24;14.60;84.70
40123;DHT22;25832;45.490;4.912;2022-09-20T20:04:50;14.60;84.80
40123;DHT22;25832;45.490;4.912;2022-09-20T20:10:08;14.60;84.90
40123;DHT22;25832;45.490;4.912;2022-09-20T20:15:43;14.50;85.50
40123;DHT22;25832;45.490;4.912;2022-09-20T20:18:24;14.40;85.70
40123;DHT22;25832;45.490;4.912;2022-09-20T20:20:55;14.30;86.20
40123;DHT22;25832;45.490;4.912;2022-09-20T20:26:25;14.20;86.70
40123;DHT22;25832;45.490;4.912;2022-09-20T20:28:51;14.20;87.10
40123;DHT22;25832;45.490;4.912;2022-09-20T20:31:18;14.10;87.30
40123;DHT22;25832;45.490;4.912;2022-09-20T20:33:44;14.10;87.60
40123;DHT22;25832;45.490;4.912;2022-09-20T20:36:10;14.00;87.80
40123;DHT22;25832;45.490;4.912;2022-09-20T20:38:37;14.00;88.00
40123;DHT22;25832;45.490;4.912;2022-09-20T20:41:14;14.00;88.30
40123;DHT22;25832;45.490;4.912;2022-09-20T20:43:42;14.00;88.40
40123;DHT22;25832;45.490;4.912;2022-09-20T20:46:11;13.90;88.50
40123;DHT22;25832;45.490;4.912;2022-09-20T20:48:38;13.90;88.50
40123;DHT22;25832;45.490;4.912;2022-09-20T20:51:22;13.80;88.90
40123;DHT22;25832;45.490;4.912;2022-09-20T20:53:50;13.80;89.10
40123;DHT22;25832;45.490;4.912;2022-09-20T20:56:21;13.70;89.10
40123;DHT22;25832;45.490;4.912;2022-09-20T20:58:47;13.70;89.30
40123;DHT22;25832;45.490;4.912;2022-09-20T21:01:18;13.70;89.10
40123;DHT22;25832;45.490;4.912;2022-09-20T21:03:47;13.70;89.00
40123;DHT22;25832;45.490;4.912;2022-09-20T21:06:13;13.70;89.10
40123;DHT22;25832;45.490;4.912;2022-09-20T21:08:41;13.70;89.00
40123;DHT22;25832;45.490;4.912;2022-09-20T21:11:13;13.70;88.90
40123;DHT22;25832;45.490;4.912;2022-09-20T21:13:40;13.70;89.00
40123;DHT22;25832;45.490;4.912;2022-09-20T21:16:13;13.70;88.80
40123;DHT22;25832;45.490;4.912;2022-09-20T21:18:41;13.70;89.00
40123;DHT22;25832;45.490;4.912;2022-09-20T21:21:19;13.70;89.20
40123;DHT22;25832;45.490;4.912;2022-09-20T21:23:47;13.60;89.70
40123;DHT22;25832;45.490;4.912;2022-09-20T21:26:14;13.50;89.80
40123;DHT22;25832;45.490;4.912;2022-09-20T21:28:51;13.50;89.90
40123;DHT22;25832;45.490;4.912;2022-09-20T21:31:19;13.50;89.70
40123;DHT22;25832;45.490;4.912;2022-09-20T21:33:45;13.50;90.00
40123;DHT22;25832;45.490;4.912;2022-09-20T21:36:13;13.40;90.20
40123;DHT22;25832;45.490;4.912;2022-09-20T21:38:43;13.40;90.20
40123;DHT22;25832;45.490;4.912;2022-09-20T21:41:17;13.30;90.40
40123;DHT22;25832;45.490;4.912;2022-09-20T21:43:43;13.30;90.40
40123;DHT22;25832;45.490;4.912;2022-09-20T21:46:27;13.20;90.60